Time;durP1;ratioP1;P1;durP2;ratioP2;P2;SDS_P1;SDS_P2;PMS_P1;PMS_P2;Temp;Humidity;BMP_temperature;BMP_pressure;BME280_temperature;BME280_humidity;BME280_pressure;Samples;Min_cycle;Max_cycle;Signal;HPM_P1;HPM_P2
2023/04/09 00:00:09;;;;;;;20.63;12.88;;;;;;;8.50;44.47;100824.34;5036464;28;20033;-64
2023/04/09 00:02:34;;;;;;;18.48;13.13;;;;;;;8.54;44.07;100817.06;5036017;28;20064;-64
2023/04/09 00:05:00;;;;;;;20.90;13.00;;;;;;;8.53;44.37;100823.34;5034992;28;20454;-64
2023/04/09 00:07:27;;;;;;;20.05;13.38;;;;;;;8.47;44.47;100820.03;5034483;28;20060;-63
2023/04/09 00:09:52;;;;;;;24.95;12.75;;;;;;;8.45;44.46;100815.72;5036286;28;20452;-62
2023/04/09 00:12:17;;;;;;;20.75;13.80;;;;;;;8.44;44.86;100822.00;5036774;28;20100;-64
2023/04/09 00:14:43;;;;;;;22.48;14.43;;;;;;;8.43;44.81;100823.81;5035705;28;20038;-64
2023/04/09 00:17:08;;;;;;;19.50;13.77;;;;;;;8.39;44.93;100824.91;5035783;28;20045;-62
2023/04/09 00:19:34;;;;;;;21.15;14.23;;;;;;;8.42;44.65;100821.22;5036331;28;20038;-64
2023/04/09 00:21:59;;;;;;;27.33;14.60;;;;;;;8.39;45.15;100824.91;5035872;28;20032;-64
2023/04/09 00:24:25;;;;;;;20.95;14.30;;;;;;;8.32;44.73;100819.09;5035327;28;20036;-65
2023/04/09 00:26:52;;;;;;;26.85;15.18;;;;;;;8.36;45.07;100825.09;5035890;28;20071;-62
2023/04/09 00:29:17;;;;;;;24.27;13.80;;;;;;;8.33;45.19;100830.59;5034332;28;20068;-63
2023/04/09 00:31:43;;;;;;;24.17;13.85;;;;;;;8.29;45.19;100823.72;5035997;28;20037;-64
2023/04/09 00:34:08;;;;;;;20.35;13.60;;;;;;;8.26;45.32;100822.06;5035548;28;20400;-63
2023/04/09 00:36:34;;;;;;;24.42;14.18;;;;;;;8.30;45.46;100826.28;5035497;28;20448;-63
2023/04/09 00:38:59;;;;;;;21.42;14.07;;;;;;;8.31;45.45;100824.50;5033540;28;20025;-63
2023/04/09 00:41:25;;;;;;;20.17;13.32;;;;;;;8.32;45.32;100818.22;5035796;28;20053;-65
2023/04/09 00:43:50;;;;;;;21.23;13.98;;;;;;;8.24;45.14;100793.78;5035528;28;20033;-64
2023/04/09 00:46:16;;;;;;;23.77;14.48;;;;;;;8.46;45.34;100825.44;5034707;28;20045;-63
2023/04/09 00:48:42;;;;;;;24.83;14.15;;;;;;;8.46;44.98;100818.31;5035410;28;20030;-62
2023/04/09 00:51:08;;;;;;;24.05;13.77;;;;;;;8.50;45.04;100831.53;5026282;28;20046;-63
2023/04/09 00:53:34;;;;;;;25.88;14.60;;;;;;;8.44;44.88;100814.88;5015392;28;20108;-64
2023/04/09 00:56:00;;;;;;;22.65;14.18;;;;;;;8.45;45.15;100824.59;5014397;28;20038;-65
2023/04/09 00:58:26;;;;;;;26.10;14.15;;;;;;;8.43;44.83;100825.63;5015063;28;20026;-63
2023/04/09 01:00:51;;;;;;;26.77;14.23;;;;;;;8.43;45.35;100818.47;5015660;28;20049;-64
2023/04/09 01:03:17;;;;;;;22.17;14.05;;;;;;;8.43;45.17;100823.81;5015387;28;20034;-63
2023/04/09 01:06:06;;;;;;;24.25;15.00;;;;;;;8.29;44.93;100789.03;5015088;28;20034;-64
2023/04/09 01:08:38;;;;;;;20.55;14.35;;;;;;;8.47;45.06;100820.03;5015158;28;20435;-64
2023/04/09 01:11:09;;;;;;;26.58;14.60;;;;;;;8.44;45.15;100814.00;5013851;28;20413;-63
2023/04/09 01:13:49;;;;;;;22.02;14.40;;;;;;;8.52;45.24;100822.47;5015918;28;20034;-63
2023/04/09 01:16:18;;;;;;;24.30;14.23;;;;;;;8.51;45.05;100817.22;5015243;28;20037;-63
2023/04/09 01:18:51;;;;;;;21.88;14.00;;;;;;;8.54;45.01;100825.06;5014977;28;20054;-63
2023/04/09 01:21:19;;;;;;;22.27;14.32;;;;;;;8.53;45.13;100826.00;5015152;28;20446;-64
2023/04/09 01:24:01;;;;;;;22.77;14.00;;;;;;;8.58;44.96;100826.59;5015032;28;20040;-63
2023/04/09 01:26:55;;;;;;;22.17;13.18;;;;;;;8.61;44.95;100829.97;5014643;28;20181;-61
2023/04/09 01:29:24;;;;;;;19.73;13.55;;;;;;;8.54;45.01;100825.06;5014939;28;20038;-63
2023/04/09 01:31:51;;;;;;;25.58;14.77;;;;;;;8.50;45.07;100823.50;5014860;28;20120;-64
2023/04/09 01:34:18;;;;;;;22.55;14.00;;;;;;;8.46;45.38;100828.13;5014534;28;20529;-65
2023/04/09 01:36:51;;;;;;;19.73;13.73;;;;;;;8.50;45.77;100828.84;5015677;28;20076;-64
2023/04/09 01:39:16;;;;;;;19.95;13.75;;;;;;;8.42;45.27;100811.41;5015079;28;20034;-66
2023/04/09 01:41:42;;;;;;;21.27;14.10;;;;;;;8.42;45.48;100815.91;5013475;28;20022;-64
2023/04/09 01:44:10;;;;;;;21.83;14.80;;;;;;;8.50;45.51;100820.84;5014461;28;20030;-63
2023/04/09 01:46:38;;;;;;;22.30;13.88;;;;;;;8.30;45.33;100785.41;5014505;28;20036;-63
2023/04/09 01:49:04;;;;;;;23.15;15.10;;;;;;;8.55;45.25;100824.09;5014506;28;20034;-63
2023/04/09 01:51:31;;;;;;;24.77;14.77;;;;;;;8.55;45.30;100830.28;5024498;28;20045;-63
2023/04/09 01:53:58;;;;;;;20.70;13.65;;;;;;;8.54;45.22;100817.91;5034356;28;20037;-61
2023/04/09 01:56:24;;;;;;;21.23;14.23;;;;;;;8.59;45.38;100825.66;5034905;28;20041;-63
2023/04/09 01:58:51;;;;;;;22.98;14.40;;;;;;;8.60;45.45;100833.59;5026140;28;20049;-64
2023/04/09 02:01:30;;;;;;;28.20;15.13;;;;;;;8.70;45.32;100833.94;5020537;28;20103;-64
2023/04/09 02:04:03;;;;;;;19.55;14.73;;;;;;;8.71;45.05;100829.44;5022705;28;20033;-62
2023/04/09 02:06:52;;;;;;;23.58;15.05;;;;;;;8.83;44.97;100833.22;5032362;28;20034;-64
2023/04/09 02:09:20;;;;;;;24.50;14.80;;;;;;;8.71;45.06;100827.66;5033808;28;20352;-63
2023/04/09 02:11:47;;;;;;;24.85;15.25;;;;;;;8.71;45.04;100824.97;5033887;28;20467;-64
2023/04/09 02:14:14;;;;;;;26.08;15.38;;;;;;;8.65;45.25;100822.63;5033970;28;20056;-63
2023/04/09 02:16:41;;;;;;;22.63;14.30;;;;;;;8.66;45.49;100826.19;5034149;28;20348;-62
2023/04/09 02:19:06;;;;;;;28.80;15.98;;;;;;;8.69;45.35;100831.34;5032625;28;20033;-63
2023/04/09 02:21:32;;;;;;;26.63;15.15;;;;;;;8.64;45.55;100831.59;5024502;28;20144;-63
2023/04/09 02:23:58;;;;;;;22.90;15.05;;;;;;;8.64;45.91;100833.41;5034073;28;20061;-64
2023/04/09 02:26:24;;;;;;;25.10;16.00;;;;;;;8.65;45.57;100827.13;5034018;28;20120;-64
2023/04/09 02:28:49;;;;;;;23.58;15.50;;;;;;;8.59;45.41;100831.00;5032607;28;20781;-65
2023/04/09 02:31:15;;;;;;;22.33;14.93;;;;;;;8.58;45.65;100832.81;5032738;28;20034;-62
2023/04/09 02:33:41;;;;;;;24.67;15.75;;;;;;;8.56;46.15;100825.84;5033531;28;20029;-62
2023/04/09 02:36:10;;;;;;;24.52;15.45;;;;;;;8.60;45.92;100835.38;5033510;28;20040;-65
2023/04/09 02:38:36;;;;;;;26.10;15.18;;;;;;;8.62;45.81;100820.13;5033592;28;20074;-63
2023/04/09 02:41:01;;;;;;;34.17;15.73;;;;;;;8.52;45.88;100810.94;5018428;28;20104;-63
2023/04/09 02:43:26;;;;;;;28.38;15.55;;;;;;;8.50;46.30;100826.19;5013819;28;20053;-65
2023/04/09 02:45:52;;;;;;;26.70;16.00;;;;;;;8.51;46.05;100827.91;5013810;28;20055;-64
2023/04/09 02:48:17;;;;;;;23.70;16.02;;;;;;;8.46;46.26;100821.00;5013191;28;20057;-64
2023/04/09 02:50:43;;;;;;;25.42;15.63;;;;;;;8.28;46.14;100788.16;5012861;28;20168;-64
2023/04/09 02:53:08;;;;;;;26.25;15.52;;;;;;;8.47;46.26;100821.84;5012030;28;20172;-64
2023/04/09 02:55:34;;;;;;;29.95;16.17;;;;;;;8.47;46.04;100816.50;5013111;28;20183;-63
2023/04/09 02:57:59;;;;;;;23.98;16.08;;;;;;;8.47;46.35;100820.03;5013945;28;20556;-64
2023/04/09 03:00:25;;;;;;;29.23;16.63;;;;;;;8.50;45.97;100823.50;5012057;28;20416;-64
2023/04/09 03:02:50;;;;;;;30.42;16.52;;;;;;;8.48;46.53;100823.56;5014235;28;20026;-62
2023/04/09 03:05:16;;;;;;;31.67;17.67;;;;;;;8.48;46.19;100815.53;5012447;28;20113;-63
2023/04/09 03:07:41;;;;;;;32.45;16.00;;;;;;;8.55;46.10;100829.44;5011614;28;20036;-63
2023/04/09 03:10:07;;;;;;;21.58;15.70;;;;;;;8.61;46.21;100823.75;5013249;28;20129;-63
2023/04/09 03:12:32;;;;;;;25.55;16.75;;;;;;;8.67;46.38;100826.06;5012032;28;20026;-63
2023/04/09 03:14:58;;;;;;;29.15;16.65;;;;;;;8.73;45.92;100828.41;5013024;28;20061;-63
2023/04/09 03:17:25;;;;;;;33.10;17.08;;;;;;;8.64;45.92;100812.91;5012866;28;20164;-64
2023/04/09 03:19:52;;;;;;;25.20;17.45;;;;;;;8.74;46.06;100830.13;5012612;28;20105;-62
2023/04/09 03:22:18;;;;;;;27.48;17.40;;;;;;;8.82;45.73;100835.03;5012521;28;20037;-64
2023/04/09 03:24:43;;;;;;;29.92;16.75;;;;;;;8.87;45.47;100840.09;5014006;28;20087;-65
2023/04/09 03:27:09;;;;;;;33.13;17.63;;;;;;;8.91;45.72;100830.97;5012998;28;20095;-64
2023/04/09 03:29:35;;;;;;;31.23;17.05;;;;;;;8.98;45.53;100835.03;5012444;28;20416;-63
2023/04/09 03:32:00;;;;;;;23.70;17.10;;;;;;;8.98;45.70;100829.69;5013154;28;20030;-63
2023/04/09 03:34:26;;;;;;;34.53;16.70;;;;;;;9.08;45.53;100832.69;5013216;28;20033;-64
2023/04/09 03:36:51;;;;;;;27.25;17.33;;;;;;;9.15;45.48;100820.69;5012558;28;20420;-63
2023/04/09 03:39:16;;;;;;;27.52;17.05;;;;;;;9.32;44.86;100830.34;5012466;28;20441;-63
2023/04/09 03:41:42;;;;;;;24.60;16.58;;;;;;;9.45;44.59;100830.50;5012988;28;20038;-64
2023/04/09 03:44:07;;;;;;;27.05;16.38;;;;;;;9.57;44.13;100828.03;5012594;28;20404;-64
2023/04/09 03:46:33;;;;;;;29.52;17.23;;;;;;;9.69;44.08;100821.09;5011931;28;20080;-64
2023/04/09 03:48:58;;;;;;;25.30;17.00;;;;;;;9.73;43.34;100801.22;5012646;28;20073;-64
2023/04/09 03:51:24;;;;;;;23.73;16.17;;;;;;;10.26;42.82;100819.38;5012909;28;20050;-63
2023/04/09 03:53:50;;;;;;;25.83;16.40;;;;;;;10.60;42.04;100825.25;5012608;28;20046;-64
2023/04/09 03:56:16;;;;;;;21.30;15.60;;;;;;;11.01;40.92;100821.69;5012324;28;20104;-63
2023/04/09 03:58:42;;;;;;;25.90;16.52;;;;;;;11.25;40.02;100818.31;5012350;28;20128;-63
2023/04/09 04:01:07;;;;;;;24.15;16.30;;;;;;;11.35;40.04;100826.59;5013034;28;20353;-64
2023/04/09 04:03:33;;;;;;;26.42;16.30;;;;;;;11.25;40.12;100823.69;5011579;28;20064;-63
2023/04/09 04:06:02;;;;;;;30.67;17.13;;;;;;;11.20;40.19;100831.19;5011947;28;20109;-64
2023/04/09 04:08:28;;;;;;;28.08;17.25;;;;;;;11.05;40.55;100830.38;5011135;28;20125;-64
2023/04/09 04:10:54;;;;;;;30.10;17.20;;;;;;;10.96;40.82;100826.50;5013767;28;20117;-64
2023/04/09 04:13:20;;;;;;;24.20;17.13;;;;;;;10.94;40.94;100825.75;5011799;28;20356;-64
2023/04/09 04:15:45;;;;;;;30.17;16.92;;;;;;;11.02;40.69;100825.25;5012228;28;20030;-64
2023/04/09 04:18:10;;;;;;;25.55;15.35;;;;;;;11.13;40.37;100825.38;5012331;28;20518;-64
2023/04/09 04:20:37;;;;;;;25.40;16.67;;;;;;;11.29;40.43;100825.19;5012757;28;20032;-63
2023/04/09 04:23:03;;;;;;;25.58;16.30;;;;;;;11.26;39.77;100771.78;5012957;28;20121;-64
2023/04/09 04:25:29;;;;;;;23.20;16.02;;;;;;;12.04;38.43;100818.28;5011968;28;20088;-63
2023/04/09 04:27:55;;;;;;;25.95;16.42;;;;;;;12.41;38.09;100817.47;5011985;28;20112;-64
2023/04/09 04:30:21;;;;;;;31.67;16.85;;;;;;;12.68;37.38;100818.28;5013404;28;20516;-63
2023/04/09 04:32:47;;;;;;;26.08;16.60;;;;;;;12.88;37.06;100809.56;5017269;28;20033;-64
2023/04/09 04:35:12;;;;;;;25.83;16.85;;;;;;;12.99;36.53;100811.44;5015674;28;20396;-64
2023/04/09 04:37:39;;;;;;;23.80;16.27;;;;;;;13.21;36.12;100813.38;5015675;28;20041;-62
2023/04/09 04:40:06;;;;;;;32.20;16.83;;;;;;;13.41;35.83;100820.91;5029651;28;20030;-63
2023/04/09 04:42:32;;;;;;;26.67;16.85;;;;;;;13.85;35.06;100827.38;5035424;28;20452;-63
2023/04/09 04:44:58;;;;;;;30.25;16.35;;;;;;;14.91;32.97;100810.88;5035169;28;20107;-64
2023/04/09 04:47:23;;;;;;;25.90;16.67;;;;;;;16.27;30.74;100803.78;5034646;28;20037;-63
2023/04/09 04:49:49;;;;;;;29.05;16.52;;;;;;;17.85;28.62;100815.53;5015476;28;20055;-63
2023/04/09 04:52:14;;;;;;;22.95;16.35;;;;;;;18.78;27.14;100806.50;4998207;28;20124;-63
2023/04/09 04:54:40;;;;;;;22.27;16.30;;;;;;;18.85;26.81;100800.50;5015099;28;20034;-63
2023/04/09 04:57:05;;;;;;;26.52;16.70;;;;;;;18.59;27.22;100802.09;5015490;28;20119;-63
2023/04/09 04:59:31;;;;;;;27.90;16.55;;;;;;;18.22;27.59;100808.44;5015501;28;20036;-64
2023/04/09 05:01:56;;;;;;;26.25;16.45;;;;;;;18.08;27.86;100810.63;5015091;28;20038;-63
2023/04/09 05:04:22;;;;;;;28.42;16.50;;;;;;;18.17;27.40;100803.47;5014243;28;20033;-64
2023/04/09 05:06:47;;;;;;;27.67;16.95;;;;;;;18.08;27.56;100802.50;5015348;28;20053;-64
2023/04/09 05:09:13;;;;;;;25.85;16.80;;;;;;;17.54;28.22;100820.31;5015006;28;20125;-64
2023/04/09 05:11:38;;;;;;;29.50;17.05;;;;;;;16.81;29.13;100797.22;5015227;28;20372;-62
2023/04/09 05:14:05;;;;;;;25.25;16.75;;;;;;;16.32;29.94;100815.06;5018416;28;20025;-63
2023/04/09 05:16:30;;;;;;;30.98;17.15;;;;;;;15.68;31.06;100818.84;5034502;28;20060;-64
2023/04/09 05:18:56;;;;;;;28.20;17.55;;;;;;;15.10;32.13;100814.72;5034715;28;20420;-64
2023/04/09 05:21:22;;;;;;;25.55;17.27;;;;;;;14.73;32.67;100815.94;5035182;28;20038;-64
2023/04/09 05:23:47;;;;;;;22.40;17.02;;;;;;;14.33;33.54;100817.34;5034544;28;20044;-63
2023/04/09 05:26:13;;;;;;;27.85;17.88;;;;;;;14.02;33.96;100819.81;5033619;28;20462;-63
2023/04/09 05:28:38;;;;;;;24.70;17.77;;;;;;;13.72;34.60;100821.22;5031566;28;20124;-64
2023/04/09 05:31:04;;;;;;;29.80;17.40;;;;;;;13.55;35.06;100825.25;5014720;28;20033;-62
2023/04/09 05:33:29;;;;;;;28.50;17.63;;;;;;;13.26;35.33;100802.28;5013352;28;20029;-62
2023/04/09 05:35:54;;;;;;;29.40;17.55;;;;;;;13.19;35.51;100819.84;5014804;28;20548;-64
2023/04/09 05:38:20;;;;;;;36.20;17.98;;;;;;;12.96;36.25;100825.13;5014042;28;20030;-65
2023/04/09 05:40:47;;;;;;;30.58;18.02;;;;;;;12.92;36.30;100827.19;5033342;28;20026;-62
2023/04/09 05:43:13;;;;;;;30.25;17.75;;;;;;;12.94;36.53;100828.91;5042212;28;20036;-64
2023/04/09 05:45:38;;;;;;;33.60;19.48;;;;;;;13.03;36.42;100823.72;5044634;28;20021;-63
2023/04/09 05:48:04;;;;;;;32.30;19.80;;;;;;;13.34;35.84;100831.25;5042562;28;20110;-64
2023/04/09 05:50:30;;;;;;;34.53;19.27;;;;;;;13.77;34.67;100813.69;5041903;28;20078;-63
2023/04/09 05:52:55;;;;;;;29.17;18.52;;;;;;;15.02;33.22;100835.13;5032900;28;20049;-64
2023/04/09 05:55:21;;;;;;;36.65;19.05;;;;;;;16.27;30.87;100822.69;5038427;28;20105;-64
2023/04/09 05:57:47;;;;;;;30.13;18.13;;;;;;;17.19;29.19;100837.00;5043822;28;20043;-63
2023/04/09 06:00:13;;;;;;;23.48;17.00;;;;;;;17.48;28.59;100832.56;5044301;28;20030;-65
2023/04/09 06:02:38;;;;;;;23.60;16.92;;;;;;;17.40;28.65;100835.16;5042308;28;20033;-64
2023/04/09 06:05:04;;;;;;;23.52;16.58;;;;;;;17.36;28.82;100840.84;5040966;28;20080;-62
2023/04/09 06:07:29;;;;;;;29.85;17.80;;;;;;;17.26;28.93;100839.16;5034239;28;20124;-64
2023/04/09 06:09:55;;;;;;;28.45;17.65;;;;;;;17.07;29.20;100833.56;5022015;28;20041;-64
2023/04/09 06:12:20;;;;;;;33.60;18.98;;;;;;;16.82;29.35;100825.97;5013546;28;20423;-64
2023/04/09 06:14:47;;;;;;;28.13;19.08;;;;;;;16.84;29.61;100842.91;5027690;28;20037;-63
2023/04/09 06:17:13;;;;;;;30.83;17.73;;;;;;;16.82;29.48;100828.69;5034080;28;20116;-64
2023/04/09 06:19:39;;;;;;;31.52;18.70;;;;;;;16.90;29.28;100834.25;5034082;28;20120;-64
2023/04/09 06:22:04;;;;;;;32.58;19.50;;;;;;;16.98;29.37;100831.72;5032780;28;20108;-65
2023/04/09 06:24:33;;;;;;;34.30;18.48;;;;;;;17.07;29.02;100830.88;5033833;28;20057;-64
2023/04/09 06:26:59;;;;;;;25.38;18.67;;;;;;;17.69;28.00;100848.63;5033835;28;20029;-65
2023/04/09 06:29:24;;;;;;;28.98;18.20;;;;;;;18.59;26.88;100841.94;5020810;28;20038;-62
2023/04/09 06:31:50;;;;;;;30.92;17.73;;;;;;;20.04;25.21;100841.88;5013774;28;20056;-65
2023/04/09 06:34:15;;;;;;;25.92;17.08;;;;;;;21.66;23.02;100839.06;5013910;28;20026;-65
2023/04/09 06:36:42;;;;;;;27.85;17.92;;;;;;;23.03;21.36;100840.75;5014290;28;20061;-64
2023/04/09 06:39:08;;;;;;;28.95;18.67;;;;;;;24.58;19.45;100834.13;5013334;28;20042;-63
2023/04/09 06:41:33;;;;;;;26.95;17.80;;;;;;;25.93;17.93;100801.47;5028473;28;20119;-64
2023/04/09 06:43:59;;;;;;;27.80;17.00;;;;;;;27.00;17.15;100837.84;5036370;28;20104;-65
2023/04/09 06:46:25;;;;;;;32.28;17.15;;;;;;;27.67;16.20;100845.31;5040166;28;20068;-64
2023/04/09 06:48:50;;;;;;;24.98;15.90;;;;;;;28.51;15.82;100840.06;5040846;28;20025;-63
2023/04/09 06:51:16;;;;;;;24.13;17.40;;;;;;;29.07;15.19;100846.78;5040567;28;20125;-62
2023/04/09 06:53:42;;;;;;;28.52;17.38;;;;;;;29.18;14.84;100822.31;5042271;28;20033;-63
2023/04/09 06:56:07;;;;;;;25.05;17.15;;;;;;;29.78;14.23;100840.28;5041411;28;20064;-64
2023/04/09 06:58:32;;;;;;;25.48;16.85;;;;;;;29.88;14.03;100839.78;5041516;28;20968;-64
2023/04/09 07:00:59;;;;;;;24.88;17.00;;;;;;;29.26;14.14;100812.91;5040503;28;20029;-63
2023/04/09 07:03:26;;;;;;;28.35;17.55;;;;;;;28.90;14.90;100851.13;5042263;28;20031;-64
2023/04/09 07:05:53;;;;;;;32.05;16.88;;;;;;;28.46;15.41;100828.84;5042355;28;20104;-62
2023/04/09 07:08:19;;;;;;;24.30;16.17;;;;;;;28.44;15.59;100850.25;5040217;28;20022;-62
2023/04/09 07:10:46;;;;;;;38.95;17.35;;;;;;;28.24;15.33;100837.41;5040736;28;20037;-65
2023/04/09 07:13:12;;;;;;;32.55;17.63;;;;;;;27.35;15.89;100816.53;5041724;28;20033;-64
2023/04/09 07:15:37;;;;;;;32.15;17.13;;;;;;;26.65;16.72;100836.03;5040371;28;20072;-63
2023/04/09 07:18:03;;;;;;;34.40;17.60;;;;;;;26.25;16.92;100852.31;5042281;28;20139;-63
2023/04/09 07:20:28;;;;;;;34.63;17.88;;;;;;;25.41;17.79;100846.63;5040741;28;20026;-65
2023/04/09 07:22:54;;;;;;;31.77;16.77;;;;;;;24.90;18.52;100845.69;5039441;28;20459;-64
2023/04/09 07:25:20;;;;;;;29.63;17.08;;;;;;;24.56;18.57;100855.38;5042441;28;20440;-64
2023/04/09 07:27:45;;;;;;;34.60;16.65;;;;;;;25.13;17.87;100850.97;5040609;28;20119;-61
2023/04/09 07:30:11;;;;;;;30.25;16.95;;;;;;;25.39;17.74;100843.22;5041369;28;20048;-63
2023/04/09 07:32:37;;;;;;;33.00;16.90;;;;;;;25.15;17.70;100859.03;5039905;28;20040;-63
2023/04/09 07:35:06;;;;;;;26.77;15.88;;;;;;;25.80;17.39;100856.22;5040469;28;20036;-62
2023/04/09 07:37:32;;;;;;;27.02;16.10;;;;;;;27.78;15.62;100855.69;5033378;28;20550;-64
2023/04/09 07:39:57;;;;;;;28.63;16.13;;;;;;;29.15;14.40;100840.16;5032007;28;20124;-63
2023/04/09 07:42:23;;;;;;;25.48;16.45;;;;;;;28.98;14.42;100852.78;5031781;28;20025;-63
2023/04/09 07:44:49;;;;;;;28.10;16.08;;;;;;;28.79;14.38;100805.81;5014796;28;20107;-64
2023/04/09 07:47:14;;;;;;;28.60;15.93;;;;;;;29.10;14.27;100850.16;5012494;28;20033;-65
2023/04/09 07:49:40;;;;;;;25.25;14.65;;;;;;;29.64;13.87;100856.97;5012417;28;20088;-63
2023/04/09 07:52:07;;;;;;;23.98;14.35;;;;;;;30.18;13.58;100850.09;5012399;28;20049;-61
2023/04/09 07:54:33;;;;;;;25.98;15.45;;;;;;;30.00;13.47;100843.44;5013263;28;20167;-62
2023/04/09 07:57:00;;;;;;;23.52;14.57;;;;;;;30.33;13.57;100849.72;5011926;28;20128;-63
2023/04/09 07:59:26;;;;;;;22.23;14.32;;;;;;;31.55;12.53;100848.88;5011878;28;20037;-63
2023/04/09 08:01:52;;;;;;;23.90;13.88;;;;;;;31.68;11.90;100839.50;5012230;28;20030;-64
2023/04/09 08:04:18;;;;;;;24.70;14.48;;;;;;;31.45;12.07;100846.69;5012068;28;20034;-62
2023/04/09 08:06:48;;;;;;;16.08;13.43;;;;;;;30.51;12.70;100838.66;5015200;28;20107;-62
2023/04/09 08:09:15;;;;;;;20.15;13.50;;;;;;;29.14;13.82;100843.13;5015965;28;20040;-63
2023/04/09 08:11:41;;;;;;;22.45;13.77;;;;;;;27.77;14.79;100821.81;5016435;28;20066;-63
2023/04/09 08:14:11;;;;;;;19.23;13.20;;;;;;;26.86;15.74;100846.03;5016182;28;20076;-62
2023/04/09 08:16:39;;;;;;;24.95;13.80;;;;;;;26.16;16.37;100838.78;5026644;28;20123;-65
2023/04/09 08:19:04;;;;;;;17.30;13.32;;;;;;;25.30;16.96;100835.13;5034462;28;20213;-64
2023/04/09 08:21:31;;;;;;;18.60;12.82;;;;;;;24.70;17.74;100834.47;5026620;28;20052;-63
2023/04/09 08:24:00;;;;;;;30.10;12.95;;;;;;;24.26;18.34;100828.03;5043213;28;20033;-64
2023/04/09 08:26:25;;;;;;;21.20;11.75;;;;;;;23.82;18.17;100838.75;5045005;28;20095;-63
2023/04/09 08:28:51;;;;;;;19.63;12.07;;;;;;;23.26;19.03;100829.00;5050868;28;20025;-62
2023/04/09 08:31:16;;;;;;;17.50;12.20;;;;;;;22.57;19.78;100829.78;5056109;28;20094;-63
2023/04/09 08:33:41;;;;;;;17.80;12.18;;;;;;;22.02;20.11;100816.81;5055302;28;20036;-64
2023/04/09 08:36:08;;;;;;;15.40;11.75;;;;;;;21.69;20.41;100832.41;5055297;28;20037;-62
2023/04/09 08:38:33;;;;;;;18.40;11.60;;;;;;;21.18;21.02;100826.09;5049233;28;20033;-63
2023/04/09 08:40:59;;;;;;;14.73;10.52;;;;;;;20.72;21.82;100828.38;5034110;28;20116;-63
2023/04/09 08:43:27;;;;;;;16.50;12.02;;;;;;;20.40;21.69;100830.81;5035259;28;20040;-63
2023/04/09 08:45:56;;;;;;;17.67;11.55;;;;;;;19.84;23.03;100816.75;5034904;28;20453;-62
2023/04/09 08:48:23;;;;;;;20.98;11.63;;;;;;;19.93;23.11;100829.41;5034190;28;20025;-62
2023/04/09 08:50:49;;;;;;;16.77;11.20;;;;;;;20.05;22.68;100830.00;5034902;28;20478;-64
2023/04/09 08:53:16;;;;;;;18.42;11.52;;;;;;;20.22;22.35;100828.19;5034582;28;20137;-61
2023/04/09 08:55:45;;;;;;;16.48;10.35;;;;;;;20.36;22.08;100824.00;5033072;28;20079;-63
2023/04/09 08:58:10;;;;;;;22.67;10.43;;;;;;;20.12;22.38;100814.72;5035236;28;20436;-62
2023/04/09 09:00:36;;;;;;;15.75;10.80;;;;;;;20.02;22.40;100816.72;5022313;28;20030;-63
2023/04/09 09:03:07;;;;;;;15.13;10.75;;;;;;;19.87;22.30;100821.84;5014444;28;20419;-63
2023/04/09 09:05:44;;;;;;;17.17;10.43;;;;;;;19.71;22.39;100830.75;5015389;28;20514;-63
2023/04/09 09:08:11;;;;;;;14.75;10.65;;;;;;;19.35;23.09;100820.81;5015006;28;20030;-63
2023/04/09 09:10:37;;;;;;;13.30;9.95;;;;;;;19.14;23.47;100821.16;5015115;28;20036;-64
2023/04/09 09:13:16;;;;;;;16.85;10.93;;;;;;;19.25;23.20;100826.31;5015120;28;20445;-63
2023/04/09 09:15:42;;;;;;;17.45;10.23;;;;;;;19.05;23.70;100812.94;5014297;28;20447;-63
2023/04/09 09:18:07;;;;;;;16.02;9.60;;;;;;;19.04;23.88;100811.22;5014211;28;20030;-63
2023/04/09 09:20:33;;;;;;;12.48;9.50;;;;;;;19.06;23.47;100802.94;5026678;28;20029;-62
2023/04/09 09:22:59;;;;;;;14.77;11.00;;;;;;;19.13;23.85;100817.56;5034373;28;20036;-62
2023/04/09 09:25:25;;;;;;;15.30;10.13;;;;;;;19.07;23.70;100808.22;5034469;28;20030;-61
2023/04/09 09:27:51;;;;;;;12.20;9.63;;;;;;;18.97;23.75;100799.25;5034887;28;20037;-65
2023/04/09 09:30:21;;;;;;;14.00;10.20;;;;;;;18.96;23.61;100804.84;5035039;28;20037;-63
2023/04/09 09:32:51;;;;;;;13.93;10.10;;;;;;;18.94;24.04;100799.56;5034524;28;20071;-63
2023/04/09 09:35:16;;;;;;;13.75;10.15;;;;;;;18.93;23.98;100796.00;5022923;28;20038;-63
2023/04/09 09:37:42;;;;;;;17.70;11.45;;;;;;;18.97;24.51;100820.94;5014942;28;20092;-63
2023/04/09 09:40:08;;;;;;;20.75;11.88;;;;;;;18.76;24.85;100802.28;5014402;28;20030;-62
2023/04/09 09:42:34;;;;;;;17.95;10.98;;;;;;;18.46;25.20;100778.03;5025793;28;20030;-63
2023/04/09 09:45:01;;;;;;;15.43;11.00;;;;;;;18.46;24.84;100797.03;5034255;28;20316;-64
2023/04/09 09:47:28;;;;;;;15.73;10.52;;;;;;;18.46;24.88;100805.16;5034057;28;20083;-63
2023/04/09 09:49:54;;;;;;;12.95;9.27;;;;;;;18.51;24.73;100788.44;5034068;28;20037;-62
2023/04/09 09:52:25;;;;;;;13.98;10.43;;;;;;;18.74;24.55;100799.69;5034493;28;20100;-62
2023/04/09 09:54:54;;;;;;;16.17;10.10;;;;;;;18.82;24.31;100787.25;5033253;28;20037;-63
2023/04/09 09:57:23;;;;;;;14.98;10.68;;;;;;;19.03;23.83;100789.66;5034650;28;20112;-63
2023/04/09 09:59:54;;;;;;;14.68;10.52;;;;;;;19.14;23.68;100783.97;5016928;28;20048;-66
2023/04/09 10:02:23;;;;;;;12.88;10.57;;;;;;;19.33;23.31;100792.97;5014392;28;20045;-62
2023/04/09 10:04:52;;;;;;;15.55;10.57;;;;;;;19.57;23.31;100800.47;5014439;28;20033;-63
2023/04/09 10:07:20;;;;;;;14.15;10.48;;;;;;;19.72;22.97;100798.00;5014414;28;20116;-64
2023/04/09 10:09:50;;;;;;;14.38;10.10;;;;;;;19.84;23.21;100797.72;5014261;28;20034;-62
2023/04/09 10:12:16;;;;;;;17.77;11.25;;;;;;;19.73;23.23;100782.53;5013866;28;20026;-64
2023/04/09 10:14:44;;;;;;;17.40;10.40;;;;;;;19.30;23.64;100768.84;5012932;28;20025;-64
2023/04/09 10:17:09;;;;;;;14.68;10.30;;;;;;;18.99;24.03;100748.41;5014368;28;20030;-63
2023/04/09 10:19:40;;;;;;;18.80;11.27;;;;;;;19.01;24.37;100794.41;5026792;28;20029;-64
2023/04/09 10:22:13;;;;;;;19.40;11.40;;;;;;;18.63;25.01;100784.50;5033583;28;20048;-62
2023/04/09 10:24:39;;;;;;;22.15;12.63;;;;;;;18.28;25.43;100778.03;5033506;28;20048;-63
2023/04/09 10:27:09;;;;;;;18.92;12.65;;;;;;;18.15;25.70;100789.22;5033163;28;20029;-62
2023/04/09 10:29:44;;;;;;;18.88;13.00;;;;;;;18.18;25.61;100783.47;5032598;28;20044;-63
2023/04/09 10:32:10;;;;;;;19.55;11.82;;;;;;;18.12;25.99;100777.81;5033370;28;20029;-63
2023/04/09 10:34:41;;;;;;;16.65;11.23;;;;;;;17.94;25.48;100768.59;5032775;28;20041;-64
2023/04/09 10:37:08;;;;;;;14.48;10.57;;;;;;;17.87;25.71;100774.75;5032901;28;20148;-64
2023/04/09 10:39:39;;;;;;;16.08;10.57;;;;;;;17.98;25.44;100768.28;5033138;28;20030;-62
2023/04/09 10:42:10;;;;;;;17.55;10.50;;;;;;;18.13;25.46;100772.25;5017560;28;20061;-63
2023/04/09 10:44:40;;;;;;;19.70;10.60;;;;;;;18.18;25.21;100774.50;5013329;28;20037;-63
2023/04/09 10:47:07;;;;;;;16.73;11.05;;;;;;;18.29;24.74;100773.44;5013296;28;20030;-63
2023/04/09 10:49:40;;;;;;;15.23;10.18;;;;;;;18.60;24.46;100773.13;5013455;28;20034;-63
2023/04/09 10:52:09;;;;;;;21.42;11.15;;;;;;;18.83;24.52;100769.97;5013591;28;20124;-64
2023/04/09 10:54:38;;;;;;;13.10;10.73;;;;;;;19.01;24.15;100768.09;5013046;28;20069;-62
2023/04/09 10:57:07;;;;;;;14.48;9.93;;;;;;;19.18;24.03;100777.25;5013284;28;20034;-62
2023/04/09 10:59:41;;;;;;;19.45;10.98;;;;;;;19.27;24.03;100780.88;5012627;28;20041;-62
2023/04/09 11:02:28;;;;;;;17.70;9.98;;;;;;;19.16;23.65;100775.69;5012456;28;20034;-63
2023/04/09 11:04:56;;;;;;;11.70;10.35;;;;;;;18.91;23.97;100767.31;5013381;28;20030;-63
2023/04/09 11:07:24;;;;;;;15.43;10.70;;;;;;;18.75;24.26;100771.56;5013653;28;20045;-63
2023/04/09 11:09:50;;;;;;;16.63;11.75;;;;;;;18.67;24.36;100771.50;5011995;28;20030;-63